クライストチャーチ の空港の天気 - METARとTAF

クライストチャーチ国際空港 ( NZCH / CHC ) - ニュージーランド クライストチャーチ
飛行場実況気象(Metar)
観測時間08/17 23:30 NZST (08/17 11:30 UTC)
風向・風速南西 4m/s
視程10km以上
天気現象弱いしゅう雨
全天の4割程度の雲 雲底高度 700m
全天の8割程度の雲 雲底高度 1070m
全天の8割程度の雲 雲底高度 2290m
気温4℃
湿度87%
気圧1021hPa
METARNZCH 171130Z AUTO 23008KT 9999 -SHRA SCT023/// BKN035/// BKN075/// 04/02 Q1021 NOSIG
過去の天気等 Google飛行場航空写真 Wunderground天気予報

過去48時間のMETAR

飛行場予報(TAF)
発表時間: 8/17 23:02 NZST (8/17 11:02 UTC)
予報対象時間: 18日0時 NZST ~ 19日0時 NZST
風向・風速西南西 4m/s
視程10km以上
天気現象弱いしゅう雨
全天の4割程度の雲 雲底高度 610m
全天の8割程度の雲 雲底高度 1220m
18日18時 NZST から
風向・風速東北東 5m/s
視程10km以上
全天の4割程度の雲 雲底高度 1520m
TAF NZCH 171102Z 1712/1812 24008KT 9999 -SHRA SCT020 BKN040
FM180600 06010KT 9999 SCT050